sensor_id;sensor_type;location;lat;lon;timestamp;temperature;humidity
1526;DHT22;756;49.982;8.240;2022-08-24T00:00:24;23.40;52.90
1526;DHT22;756;49.982;8.240;2022-08-24T00:02:51;23.40;53.10
1526;DHT22;756;49.982;8.240;2022-08-24T00:05:18;23.30;53.10
1526;DHT22;756;49.982;8.240;2022-08-24T00:07:48;23.30;53.10
1526;DHT22;756;49.982;8.240;2022-08-24T00:10:16;23.20;53.40
1526;DHT22;756;49.982;8.240;2022-08-24T00:12:43;23.20;53.00
1526;DHT22;756;49.982;8.240;2022-08-24T00:15:12;23.10;53.10
1526;DHT22;756;49.982;8.240;2022-08-24T00:17:39;23.10;53.10
1526;DHT22;756;49.982;8.240;2022-08-24T00:20:07;23.10;53.40
1526;DHT22;756;49.982;8.240;2022-08-24T00:22:35;23.10;53.30
1526;DHT22;756;49.982;8.240;2022-08-24T00:25:02;23.10;52.90
1526;DHT22;756;49.982;8.240;2022-08-24T00:27:30;23.00;53.60
1526;DHT22;756;49.982;8.240;2022-08-24T00:29:56;23.00;53.60
1526;DHT22;756;49.982;8.240;2022-08-24T00:32:23;22.90;53.90
1526;DHT22;756;49.982;8.240;2022-08-24T00:34:50;23.00;53.30
1526;DHT22;756;49.982;8.240;2022-08-24T00:37:26;23.00;53.40
1526;DHT22;756;49.982;8.240;2022-08-24T00:39:54;23.00;53.50
1526;DHT22;756;49.982;8.240;2022-08-24T00:42:22;22.90;53.50
1526;DHT22;756;49.982;8.240;2022-08-24T00:44:48;22.90;53.80
1526;DHT22;756;49.982;8.240;2022-08-24T00:47:24;22.90;53.70
1526;DHT22;756;49.982;8.240;2022-08-24T00:49:59;23.00;53.60
1526;DHT22;756;49.982;8.240;2022-08-24T00:52:41;23.00;53.00
1526;DHT22;756;49.982;8.240;2022-08-24T00:55:14;22.90;53.40
1526;DHT22;756;49.982;8.240;2022-08-24T00:57:46;22.80;53.70
1526;DHT22;756;49.982;8.240;2022-08-24T01:00:22;22.60;54.00
1526;DHT22;756;49.982;8.240;2022-08-24T01:02:53;22.60;54.20
1526;DHT22;756;49.982;8.240;2022-08-24T01:05:21;22.50;54.50
1526;DHT22;756;49.982;8.240;2022-08-24T01:07:48;22.60;54.50
1526;DHT22;756;49.982;8.240;2022-08-24T01:10:20;22.60;54.60
1526;DHT22;756;49.982;8.240;2022-08-24T01:12:49;22.60;54.50
1526;DHT22;756;49.982;8.240;2022-08-24T01:15:31;22.50;54.80
1526;DHT22;756;49.982;8.240;2022-08-24T01:18:00;22.40;54.90
1526;DHT22;756;49.982;8.240;2022-08-24T01:20:49;22.40;55.00
1526;DHT22;756;49.982;8.240;2022-08-24T01:23:40;22.40;55.00
1526;DHT22;756;49.982;8.240;2022-08-24T01:26:10;22.30;55.30
1526;DHT22;756;49.982;8.240;2022-08-24T01:28:42;22.30;55.20
1526;DHT22;756;49.982;8.240;2022-08-24T01:31:10;22.30;55.30
1526;DHT22;756;49.982;8.240;2022-08-24T01:33:37;22.20;55.50
1526;DHT22;756;49.982;8.240;2022-08-24T01:36:14;22.20;55.30
1526;DHT22;756;49.982;8.240;2022-08-24T01:38:44;22.10;55.70
1526;DHT22;756;49.982;8.240;2022-08-24T01:41:11;22.10;55.60
1526;DHT22;756;49.982;8.240;2022-08-24T01:43:38;22.00;56.10
1526;DHT22;756;49.982;8.240;2022-08-24T01:46:05;21.90;56.20
1526;DHT22;756;49.982;8.240;2022-08-24T01:48:31;21.90;56.40
1526;DHT22;756;49.982;8.240;2022-08-24T01:50:58;21.90;56.40
1526;DHT22;756;49.982;8.240;2022-08-24T01:53:25;21.90;56.40
1526;DHT22;756;49.982;8.240;2022-08-24T01:55:52;21.90;56.40
1526;DHT22;756;49.982;8.240;2022-08-24T01:58:19;21.90;56.30
1526;DHT22;756;49.982;8.240;2022-08-24T02:00:45;21.80;56.60
1526;DHT22;756;49.982;8.240;2022-08-24T02:03:12;21.80;56.50
1526;DHT22;756;49.982;8.240;2022-08-24T02:05:39;21.80;56.40
1526;DHT22;756;49.982;8.240;2022-08-24T02:08:06;21.80;56.50
1526;DHT22;756;49.982;8.240;2022-08-24T02:10:33;21.80;56.60
1526;DHT22;756;49.982;8.240;2022-08-24T02:13:02;21.70;56.80
1526;DHT22;756;49.982;8.240;2022-08-24T02:15:33;21.70;56.90
1526;DHT22;756;49.982;8.240;2022-08-24T02:18:05;21.70;56.70
1526;DHT22;756;49.982;8.240;2022-08-24T02:20:40;21.60;56.70
1526;DHT22;756;49.982;8.240;2022-08-24T02:23:07;21.50;57.00
1526;DHT22;756;49.982;8.240;2022-08-24T02:25:34;21.40;57.10
1526;DHT22;756;49.982;8.240;2022-08-24T02:28:01;21.40;57.40
1526;DHT22;756;49.982;8.240;2022-08-24T02:30:29;21.40;57.40
1526;DHT22;756;49.982;8.240;2022-08-24T02:32:56;21.40;57.40
1526;DHT22;756;49.982;8.240;2022-08-24T02:35:25;21.30;57.50
1526;DHT22;756;49.982;8.240;2022-08-24T02:37:52;21.40;57.50
1526;DHT22;756;49.982;8.240;2022-08-24T02:40:20;21.30;57.70
1526;DHT22;756;49.982;8.240;2022-08-24T02:42:47;21.30;57.70
1526;DHT22;756;49.982;8.240;2022-08-24T02:45:14;21.30;57.80
1526;DHT22;756;49.982;8.240;2022-08-24T02:47:41;21.20;57.80
1526;DHT22;756;49.982;8.240;2022-08-24T02:50:13;21.30;57.70
1526;DHT22;756;49.982;8.240;2022-08-24T02:52:41;21.20;57.60
1526;DHT22;756;49.982;8.240;2022-08-24T02:55:12;21.20;57.90
1526;DHT22;756;49.982;8.240;2022-08-24T02:57:40;21.10;58.00
1526;DHT22;756;49.982;8.240;2022-08-24T03:00:10;21.10;57.90
1526;DHT22;756;49.982;8.240;2022-08-24T03:02:38;21.20;57.80
1526;DHT22;756;49.982;8.240;2022-08-24T03:05:06;21.20;57.70
1526;DHT22;756;49.982;8.240;2022-08-24T03:07:33;21.10;57.90
1526;DHT22;756;49.982;8.240;2022-08-24T03:10:01;21.10;57.40
1526;DHT22;756;49.982;8.240;2022-08-24T03:12:27;21.10;57.10
1526;DHT22;756;49.982;8.240;2022-08-24T03:14:54;21.10;56.90
1526;DHT22;756;49.982;8.240;2022-08-24T03:17:21;21.00;57.10
1526;DHT22;756;49.982;8.240;2022-08-24T03:19:49;20.90;57.40
1526;DHT22;756;49.982;8.240;2022-08-24T03:22:16;20.90;57.40
1526;DHT22;756;49.982;8.240;2022-08-24T03:24:44;20.90;57.90
1526;DHT22;756;49.982;8.240;2022-08-24T03:27:12;20.70;58.30
1526;DHT22;756;49.982;8.240;2022-08-24T03:29:40;20.70;58.40
1526;DHT22;756;49.982;8.240;2022-08-24T03:32:07;20.70;58.50
1526;DHT22;756;49.982;8.240;2022-08-24T03:34:34;20.80;58.20
1526;DHT22;756;49.982;8.240;2022-08-24T03:37:01;20.80;58.40
1526;DHT22;756;49.982;8.240;2022-08-24T03:39:27;20.80;58.30
1526;DHT22;756;49.982;8.240;2022-08-24T03:41:55;20.80;58.50
1526;DHT22;756;49.982;8.240;2022-08-24T03:44:21;20.80;58.60
1526;DHT22;756;49.982;8.240;2022-08-24T03:46:51;20.80;58.60
1526;DHT22;756;49.982;8.240;2022-08-24T03:49:19;20.70;58.90
1526;DHT22;756;49.982;8.240;2022-08-24T03:51:46;20.60;59.00
1526;DHT22;756;49.982;8.240;2022-08-24T03:54:16;20.60;59.20
1526;DHT22;756;49.982;8.240;2022-08-24T03:56:42;20.60;59.50
1526;DHT22;756;49.982;8.240;2022-08-24T03:59:10;20.60;59.50
1526;DHT22;756;49.982;8.240;2022-08-24T04:01:37;20.60;59.70
1526;DHT22;756;49.982;8.240;2022-08-24T04:04:04;20.60;60.00
1526;DHT22;756;49.982;8.240;2022-08-24T04:06:31;20.50;60.20
1526;DHT22;756;49.982;8.240;2022-08-24T04:08:58;20.60;60.10
1526;DHT22;756;49.982;8.240;2022-08-24T04:11:27;20.50;60.30
1526;DHT22;756;49.982;8.240;2022-08-24T04:13:56;20.50;60.50
1526;DHT22;756;49.982;8.240;2022-08-24T04:16:23;20.50;60.40
1526;DHT22;756;49.982;8.240;2022-08-24T04:18:51;20.50;60.40
1526;DHT22;756;49.982;8.240;2022-08-24T04:21:23;20.50;60.50
1526;DHT22;756;49.982;8.240;2022-08-24T04:23:51;20.60;60.50
1526;DHT22;756;49.982;8.240;2022-08-24T04:26:19;20.60;60.50
1526;DHT22;756;49.982;8.240;2022-08-24T04:29:08;20.50;60.70
1526;DHT22;756;49.982;8.240;2022-08-24T04:31:36;20.50;61.00
1526;DHT22;756;49.982;8.240;2022-08-24T04:34:05;20.50;61.00
1526;DHT22;756;49.982;8.240;2022-08-24T04:36:32;20.50;61.00
1526;DHT22;756;49.982;8.240;2022-08-24T04:39:00;20.60;61.00
1526;DHT22;756;49.982;8.240;2022-08-24T04:41:27;20.50;61.00
1526;DHT22;756;49.982;8.240;2022-08-24T04:43:58;20.50;60.90
1526;DHT22;756;49.982;8.240;2022-08-24T04:46:25;20.50;60.90
1526;DHT22;756;49.982;8.240;2022-08-24T04:48:53;20.60;61.00
1526;DHT22;756;49.982;8.240;2022-08-24T04:51:20;20.50;61.10
1526;DHT22;756;49.982;8.240;2022-08-24T04:53:49;20.50;61.20
1526;DHT22;756;49.982;8.240;2022-08-24T04:56:21;20.50;61.50
1526;DHT22;756;49.982;8.240;2022-08-24T04:58:50;20.50;61.60
1526;DHT22;756;49.982;8.240;2022-08-24T05:01:20;20.50;61.70
1526;DHT22;756;49.982;8.240;2022-08-24T05:03:48;20.60;61.60
1526;DHT22;756;49.982;8.240;2022-08-24T05:06:17;20.60;61.50
1526;DHT22;756;49.982;8.240;2022-08-24T05:08:44;20.60;61.50
1526;DHT22;756;49.982;8.240;2022-08-24T05:11:13;20.60;61.50
1526;DHT22;756;49.982;8.240;2022-08-24T05:13:40;20.60;61.50
1526;DHT22;756;49.982;8.240;2022-08-24T05:16:14;20.60;61.50
1526;DHT22;756;49.982;8.240;2022-08-24T05:18:41;20.60;61.80
1526;DHT22;756;49.982;8.240;2022-08-24T05:21:10;20.60;61.90
1526;DHT22;756;49.982;8.240;2022-08-24T05:23:38;20.70;62.00
1526;DHT22;756;49.982;8.240;2022-08-24T05:26:15;20.80;61.50
1526;DHT22;756;49.982;8.240;2022-08-24T05:28:43;20.90;61.50
1526;DHT22;756;49.982;8.240;2022-08-24T05:31:19;20.90;61.60
1526;DHT22;756;49.982;8.240;2022-08-24T05:33:47;20.90;61.70
1526;DHT22;756;49.982;8.240;2022-08-24T05:36:22;21.00;61.50
1526;DHT22;756;49.982;8.240;2022-08-24T05:38:52;21.00;61.60
1526;DHT22;756;49.982;8.240;2022-08-24T05:41:19;21.00;61.80
1526;DHT22;756;49.982;8.240;2022-08-24T05:43:46;21.10;61.90
1526;DHT22;756;49.982;8.240;2022-08-24T05:46:14;21.10;61.90
1526;DHT22;756;49.982;8.240;2022-08-24T05:48:41;21.10;62.10
1526;DHT22;756;49.982;8.240;2022-08-24T05:51:16;21.10;62.20
1526;DHT22;756;49.982;8.240;2022-08-24T05:53:43;21.20;62.10
1526;DHT22;756;49.982;8.240;2022-08-24T05:56:12;21.20;62.20
1526;DHT22;756;49.982;8.240;2022-08-24T05:58:40;21.30;62.60
1526;DHT22;756;49.982;8.240;2022-08-24T06:01:13;21.30;62.60
1526;DHT22;756;49.982;8.240;2022-08-24T06:03:41;21.30;62.60
1526;DHT22;756;49.982;8.240;2022-08-24T06:06:08;21.40;63.30
1526;DHT22;756;49.982;8.240;2022-08-24T06:08:41;21.40;63.00
1526;DHT22;756;49.982;8.240;2022-08-24T06:11:08;21.50;62.80
1526;DHT22;756;49.982;8.240;2022-08-24T06:13:35;21.60;62.70
1526;DHT22;756;49.982;8.240;2022-08-24T06:16:11;21.60;63.10
1526;DHT22;756;49.982;8.240;2022-08-24T06:18:47;21.70;63.10
1526;DHT22;756;49.982;8.240;2022-08-24T06:21:18;21.80;62.90
1526;DHT22;756;49.982;8.240;2022-08-24T06:23:46;21.80;62.80
1526;DHT22;756;49.982;8.240;2022-08-24T06:26:14;21.90;62.50
1526;DHT22;756;49.982;8.240;2022-08-24T06:28:59;22.00;62.30
1526;DHT22;756;49.982;8.240;2022-08-24T06:31:26;22.10;61.60
1526;DHT22;756;49.982;8.240;2022-08-24T06:33:56;22.20;61.30
1526;DHT22;756;49.982;8.240;2022-08-24T06:36:22;22.30;61.60
1526;DHT22;756;49.982;8.240;2022-08-24T06:38:50;22.40;61.70
1526;DHT22;756;49.982;8.240;2022-08-24T06:41:17;22.50;61.20
1526;DHT22;756;49.982;8.240;2022-08-24T06:43:44;22.50;60.70
1526;DHT22;756;49.982;8.240;2022-08-24T06:46:11;22.60;60.10
1526;DHT22;756;49.982;8.240;2022-08-24T06:48:38;22.60;59.30
1526;DHT22;756;49.982;8.240;2022-08-24T06:51:13;22.70;59.30
1526;DHT22;756;49.982;8.240;2022-08-24T06:53:40;22.80;59.10
1526;DHT22;756;49.982;8.240;2022-08-24T06:56:07;22.90;58.80
1526;DHT22;756;49.982;8.240;2022-08-24T06:58:35;22.90;58.60
1526;DHT22;756;49.982;8.240;2022-08-24T07:01:17;23.00;58.20
1526;DHT22;756;49.982;8.240;2022-08-24T07:03:44;23.10;58.00
1526;DHT22;756;49.982;8.240;2022-08-24T07:06:12;23.10;58.10
1526;DHT22;756;49.982;8.240;2022-08-24T07:08:41;23.20;58.00
1526;DHT22;756;49.982;8.240;2022-08-24T07:11:09;23.30;57.70
1526;DHT22;756;49.982;8.240;2022-08-24T07:13:37;23.30;57.60
1526;DHT22;756;49.982;8.240;2022-08-24T07:16:04;23.30;57.70
1526;DHT22;756;49.982;8.240;2022-08-24T07:18:31;23.30;57.60
1526;DHT22;756;49.982;8.240;2022-08-24T07:21:01;23.40;57.30
1526;DHT22;756;49.982;8.240;2022-08-24T07:23:29;23.50;56.90
1526;DHT22;756;49.982;8.240;2022-08-24T07:26:14;23.50;56.80
1526;DHT22;756;49.982;8.240;2022-08-24T07:28:55;23.60;56.90
1526;DHT22;756;49.982;8.240;2022-08-24T07:31:26;23.60;56.80
1526;DHT22;756;49.982;8.240;2022-08-24T07:34:00;23.70;56.70
1526;DHT22;756;49.982;8.240;2022-08-24T07:36:27;23.80;56.30
1526;DHT22;756;49.982;8.240;2022-08-24T07:38:54;23.90;56.00
1526;DHT22;756;49.982;8.240;2022-08-24T07:41:22;24.00;56.20
1526;DHT22;756;49.982;8.240;2022-08-24T07:44:12;24.10;55.90
1526;DHT22;756;49.982;8.240;2022-08-24T07:46:39;24.20;55.80
1526;DHT22;756;49.982;8.240;2022-08-24T07:49:07;24.30;56.00
1526;DHT22;756;49.982;8.240;2022-08-24T07:51:54;24.40;55.70
1526;DHT22;756;49.982;8.240;2022-08-24T07:54:20;24.50;55.20
1526;DHT22;756;49.982;8.240;2022-08-24T07:56:47;24.70;54.60
1526;DHT22;756;49.982;8.240;2022-08-24T07:59:16;24.80;54.50
1526;DHT22;756;49.982;8.240;2022-08-24T08:01:43;24.90;54.40
1526;DHT22;756;49.982;8.240;2022-08-24T08:04:10;25.00;54.30
1526;DHT22;756;49.982;8.240;2022-08-24T08:06:37;25.20;53.90
1526;DHT22;756;49.982;8.240;2022-08-24T08:09:04;25.30;53.40
1526;DHT22;756;49.982;8.240;2022-08-24T08:11:31;25.40;52.90
1526;DHT22;756;49.982;8.240;2022-08-24T08:13:58;25.40;52.40
1526;DHT22;756;49.982;8.240;2022-08-24T08:16:26;25.50;52.30
1526;DHT22;756;49.982;8.240;2022-08-24T08:18:54;25.60;52.20
1526;DHT22;756;49.982;8.240;2022-08-24T08:21:41;25.80;51.90
1526;DHT22;756;49.982;8.240;2022-08-24T08:24:36;25.90;51.40
1526;DHT22;756;49.982;8.240;2022-08-24T08:27:03;26.10;51.10
1526;DHT22;756;49.982;8.240;2022-08-24T08:29:32;26.20;50.50
1526;DHT22;756;49.982;8.240;2022-08-24T08:31:59;26.40;50.40
1526;DHT22;756;49.982;8.240;2022-08-24T08:34:26;26.50;49.90
1526;DHT22;756;49.982;8.240;2022-08-24T08:36:53;26.60;49.90
1526;DHT22;756;49.982;8.240;2022-08-24T08:39:20;26.70;49.50
1526;DHT22;756;49.982;8.240;2022-08-24T08:44:58;27.00;49.00
1526;DHT22;756;49.982;8.240;2022-08-24T08:50:19;27.20;48.70
1526;DHT22;756;49.982;8.240;2022-08-24T08:58:51;27.40;48.60
1526;DHT22;756;49.982;8.240;2022-08-24T09:01:58;27.40;48.60
1526;DHT22;756;49.982;8.240;2022-08-24T09:04:58;27.50;48.20
1526;DHT22;756;49.982;8.240;2022-08-24T09:08:02;27.50;47.80
1526;DHT22;756;49.982;8.240;2022-08-24T09:13:29;27.50;47.90
1526;DHT22;756;49.982;8.240;2022-08-24T09:16:08;27.50;47.90
1526;DHT22;756;49.982;8.240;2022-08-24T09:27:24;27.70;47.40
1526;DHT22;756;49.982;8.240;2022-08-24T10:20:11;29.80;42.60
1526;DHT22;756;49.982;8.240;2022-08-24T10:23:05;29.70;42.80
1526;DHT22;756;49.982;8.240;2022-08-24T10:31:37;29.80;42.80
1526;DHT22;756;49.982;8.240;2022-08-24T10:34:30;29.80;42.60
1526;DHT22;756;49.982;8.240;2022-08-24T10:37:52;29.80;42.20
1526;DHT22;756;49.982;8.240;2022-08-24T10:49:13;29.80;42.10
1526;DHT22;756;49.982;8.240;2022-08-24T10:54:50;30.00;41.90
1526;DHT22;756;49.982;8.240;2022-08-24T10:57:29;30.20;41.30
1526;DHT22;756;49.982;8.240;2022-08-24T11:00:17;30.20;41.20
1526;DHT22;756;49.982;8.240;2022-08-24T11:02:50;30.10;41.50
1526;DHT22;756;49.982;8.240;2022-08-24T11:05:41;30.00;41.20
1526;DHT22;756;49.982;8.240;2022-08-24T11:08:21;29.80;41.70
1526;DHT22;756;49.982;8.240;2022-08-24T11:11:09;29.80;42.10
1526;DHT22;756;49.982;8.240;2022-08-24T11:13:48;29.70;42.50
1526;DHT22;756;49.982;8.240;2022-08-24T11:16:28;29.70;42.20
1526;DHT22;756;49.982;8.240;2022-08-24T11:18:59;29.70;41.80
1526;DHT22;756;49.982;8.240;2022-08-24T11:21:43;29.70;41.80
1526;DHT22;756;49.982;8.240;2022-08-24T11:27:02;29.60;40.80
1526;DHT22;756;49.982;8.240;2022-08-24T11:32:41;29.50;40.00
1526;DHT22;756;49.982;8.240;2022-08-24T11:35:34;29.40;40.40
1526;DHT22;756;49.982;8.240;2022-08-24T11:38:29;29.40;40.90
1526;DHT22;756;49.982;8.240;2022-08-24T11:41:22;29.30;41.50
1526;DHT22;756;49.982;8.240;2022-08-24T11:44:08;29.20;41.70
1526;DHT22;756;49.982;8.240;2022-08-24T11:46:56;29.20;41.70
1526;DHT22;756;49.982;8.240;2022-08-24T11:49:46;29.20;41.60
1526;DHT22;756;49.982;8.240;2022-08-24T12:01:34;29.20;41.20
1526;DHT22;756;49.982;8.240;2022-08-24T12:09:56;29.20;41.20
1526;DHT22;756;49.982;8.240;2022-08-24T12:12:52;29.20;41.30
1526;DHT22;756;49.982;8.240;2022-08-24T12:15:35;29.20;41.30
1526;DHT22;756;49.982;8.240;2022-08-24T12:20:41;29.30;40.80
1526;DHT22;756;49.982;8.240;2022-08-24T12:23:33;29.30;40.80
1526;DHT22;756;49.982;8.240;2022-08-24T12:26:24;29.40;41.10
1526;DHT22;756;49.982;8.240;2022-08-24T12:28:59;29.30;39.90
1526;DHT22;756;49.982;8.240;2022-08-24T12:31:48;29.30;39.80
1526;DHT22;756;49.982;8.240;2022-08-24T12:37:29;29.40;39.40
1526;DHT22;756;49.982;8.240;2022-08-24T12:45:49;29.40;38.60
1526;DHT22;756;49.982;8.240;2022-08-24T12:48:40;29.40;39.10
1526;DHT22;756;49.982;8.240;2022-08-24T12:51:24;29.50;39.30
1526;DHT22;756;49.982;8.240;2022-08-24T12:59:49;29.60;39.50
1526;DHT22;756;49.982;8.240;2022-08-24T13:33:50;29.80;38.00
1526;DHT22;756;49.982;8.240;2022-08-24T13:42:12;30.00;37.50
1526;DHT22;756;49.982;8.240;2022-08-24T13:50:29;30.00;37.50
1526;DHT22;756;49.982;8.240;2022-08-24T13:59:00;30.10;37.60
1526;DHT22;756;49.982;8.240;2022-08-24T14:12:22;30.10;37.30
1526;DHT22;756;49.982;8.240;2022-08-24T14:17:56;30.10;38.40
1526;DHT22;756;49.982;8.240;2022-08-24T14:34:54;30.10;37.90
1526;DHT22;756;49.982;8.240;2022-08-24T14:42:56;30.10;37.80
1526;DHT22;756;49.982;8.240;2022-08-24T14:48:31;30.20;38.30
1526;DHT22;756;49.982;8.240;2022-08-24T14:57:21;30.20;38.20
1526;DHT22;756;49.982;8.240;2022-08-24T15:00:24;30.20;38.40
1526;DHT22;756;49.982;8.240;2022-08-24T15:07:58;30.10;38.00
1526;DHT22;756;49.982;8.240;2022-08-24T15:10:51;30.10;38.30
1526;DHT22;756;49.982;8.240;2022-08-24T15:19:27;30.20;39.00
1526;DHT22;756;49.982;8.240;2022-08-24T15:22:24;30.20;39.30
1526;DHT22;756;49.982;8.240;2022-08-24T15:25:09;30.20;39.40
1526;DHT22;756;49.982;8.240;2022-08-24T15:30:05;30.20;39.00
1526;DHT22;756;49.982;8.240;2022-08-24T15:33:09;30.20;38.80
1526;DHT22;756;49.982;8.240;2022-08-24T15:35:40;30.20;38.10
1526;DHT22;756;49.982;8.240;2022-08-24T15:43:30;30.20;38.70
1526;DHT22;756;49.982;8.240;2022-08-24T15:45:57;30.30;38.30
1526;DHT22;756;49.982;8.240;2022-08-24T15:48:25;30.30;38.30
1526;DHT22;756;49.982;8.240;2022-08-24T15:50:53;30.30;38.10
1526;DHT22;756;49.982;8.240;2022-08-24T15:53:40;30.30;38.30
1526;DHT22;756;49.982;8.240;2022-08-24T15:58:47;30.30;38.20
1526;DHT22;756;49.982;8.240;2022-08-24T16:12:11;30.30;37.90
1526;DHT22;756;49.982;8.240;2022-08-24T16:14:45;30.20;37.70
1526;DHT22;756;49.982;8.240;2022-08-24T16:17:46;30.30;38.00
1526;DHT22;756;49.982;8.240;2022-08-24T16:22:52;30.30;38.30
1526;DHT22;756;49.982;8.240;2022-08-24T16:25:47;30.30;38.20
1526;DHT22;756;49.982;8.240;2022-08-24T16:31:48;30.30;38.10
1526;DHT22;756;49.982;8.240;2022-08-24T16:33:46;30.20;38.30
1526;DHT22;756;49.982;8.240;2022-08-24T16:36:16;30.20;38.10
1526;DHT22;756;49.982;8.240;2022-08-24T16:38:48;30.20;38.10
1526;DHT22;756;49.982;8.240;2022-08-24T16:41:20;30.20;38.00
1526;DHT22;756;49.982;8.240;2022-08-24T16:43:48;30.10;37.60
1526;DHT22;756;49.982;8.240;2022-08-24T16:46:21;30.10;37.60
1526;DHT22;756;49.982;8.240;2022-08-24T16:48:49;30.10;37.70
1526;DHT22;756;49.982;8.240;2022-08-24T16:51:15;30.10;37.90
1526;DHT22;756;49.982;8.240;2022-08-24T16:53:42;30.10;38.10
1526;DHT22;756;49.982;8.240;2022-08-24T16:56:09;30.10;38.30
1526;DHT22;756;49.982;8.240;2022-08-24T16:58:42;30.10;38.40
1526;DHT22;756;49.982;8.240;2022-08-24T17:01:08;30.10;38.40
1526;DHT22;756;49.982;8.240;2022-08-24T17:03:40;30.00;38.30
1526;DHT22;756;49.982;8.240;2022-08-24T17:06:10;30.00;38.40
1526;DHT22;756;49.982;8.240;2022-08-24T17:08:39;30.00;38.90
1526;DHT22;756;49.982;8.240;2022-08-24T17:11:06;30.00;39.30
1526;DHT22;756;49.982;8.240;2022-08-24T17:13:32;29.90;39.30
1526;DHT22;756;49.982;8.240;2022-08-24T17:16:18;29.90;39.50
1526;DHT22;756;49.982;8.240;2022-08-24T17:18:46;29.80;38.60
1526;DHT22;756;49.982;8.240;2022-08-24T17:21:13;29.80;38.60
1526;DHT22;756;49.982;8.240;2022-08-24T17:23:41;29.90;38.80
1526;DHT22;756;49.982;8.240;2022-08-24T17:26:11;29.80;38.70
1526;DHT22;756;49.982;8.240;2022-08-24T17:28:48;29.80;38.20
1526;DHT22;756;49.982;8.240;2022-08-24T17:31:15;29.70;38.20
1526;DHT22;756;49.982;8.240;2022-08-24T17:33:42;29.70;38.70
1526;DHT22;756;49.982;8.240;2022-08-24T17:36:09;29.70;38.80
1526;DHT22;756;49.982;8.240;2022-08-24T17:38:46;29.80;38.90
1526;DHT22;756;49.982;8.240;2022-08-24T17:41:21;29.80;39.10
1526;DHT22;756;49.982;8.240;2022-08-24T17:43:49;29.80;39.20
1526;DHT22;756;49.982;8.240;2022-08-24T17:46:17;29.80;39.30
1526;DHT22;756;49.982;8.240;2022-08-24T17:48:45;29.70;39.40
1526;DHT22;756;49.982;8.240;2022-08-24T17:51:12;29.70;39.50
1526;DHT22;756;49.982;8.240;2022-08-24T17:53:39;29.70;39.60
1526;DHT22;756;49.982;8.240;2022-08-24T17:56:07;29.70;39.60
1526;DHT22;756;49.982;8.240;2022-08-24T17:58:34;29.70;39.60
1526;DHT22;756;49.982;8.240;2022-08-24T18:01:22;29.60;39.60
1526;DHT22;756;49.982;8.240;2022-08-24T18:03:49;29.60;40.20
1526;DHT22;756;49.982;8.240;2022-08-24T18:06:17;29.60;40.30
1526;DHT22;756;49.982;8.240;2022-08-24T18:08:45;29.60;40.90
1526;DHT22;756;49.982;8.240;2022-08-24T18:11:12;29.50;41.20
1526;DHT22;756;49.982;8.240;2022-08-24T18:13:40;29.50;41.30
1526;DHT22;756;49.982;8.240;2022-08-24T18:16:15;29.40;41.70
1526;DHT22;756;49.982;8.240;2022-08-24T18:18:43;29.40;42.20
1526;DHT22;756;49.982;8.240;2022-08-24T18:21:09;29.30;42.60
1526;DHT22;756;49.982;8.240;2022-08-24T18:23:36;29.30;43.00
1526;DHT22;756;49.982;8.240;2022-08-24T18:26:09;29.20;42.90
1526;DHT22;756;49.982;8.240;2022-08-24T18:28:37;29.10;43.30
1526;DHT22;756;49.982;8.240;2022-08-24T18:31:08;29.10;43.20
1526;DHT22;756;49.982;8.240;2022-08-24T18:33:35;29.10;43.50
1526;DHT22;756;49.982;8.240;2022-08-24T18:36:02;29.00;43.60
1526;DHT22;756;49.982;8.240;2022-08-24T18:38:29;28.90;44.00
1526;DHT22;756;49.982;8.240;2022-08-24T18:40:59;28.90;44.10
1526;DHT22;756;49.982;8.240;2022-08-24T18:43:26;28.80;44.40
1526;DHT22;756;49.982;8.240;2022-08-24T18:45:55;28.70;44.50
1526;DHT22;756;49.982;8.240;2022-08-24T18:48:22;28.70;44.60
1526;DHT22;756;49.982;8.240;2022-08-24T18:50:50;28.60;45.20
1526;DHT22;756;49.982;8.240;2022-08-24T18:53:18;28.60;45.50
1526;DHT22;756;49.982;8.240;2022-08-24T18:55:45;28.50;45.70
1526;DHT22;756;49.982;8.240;2022-08-24T18:58:13;28.40;45.80
1526;DHT22;756;49.982;8.240;2022-08-24T19:00:40;28.30;46.10
1526;DHT22;756;49.982;8.240;2022-08-24T19:03:10;28.30;46.30
1526;DHT22;756;49.982;8.240;2022-08-24T19:05:40;28.20;46.50
1526;DHT22;756;49.982;8.240;2022-08-24T19:08:11;28.20;46.70
1526;DHT22;756;49.982;8.240;2022-08-24T19:10:38;28.10;46.80
1526;DHT22;756;49.982;8.240;2022-08-24T19:13:08;28.10;47.00
1526;DHT22;756;49.982;8.240;2022-08-24T19:15:35;28.00;47.00
1526;DHT22;756;49.982;8.240;2022-08-24T19:18:09;27.90;47.00
1526;DHT22;756;49.982;8.240;2022-08-24T19:20:41;27.90;47.30
1526;DHT22;756;49.982;8.240;2022-08-24T19:23:17;27.80;47.30
1526;DHT22;756;49.982;8.240;2022-08-24T19:25:45;27.80;47.20
1526;DHT22;756;49.982;8.240;2022-08-24T19:28:12;27.70;47.20
1526;DHT22;756;49.982;8.240;2022-08-24T19:30:39;27.60;47.40
1526;DHT22;756;49.982;8.240;2022-08-24T19:33:07;27.60;47.40
1526;DHT22;756;49.982;8.240;2022-08-24T19:35:39;27.50;47.40
1526;DHT22;756;49.982;8.240;2022-08-24T19:38:06;27.50;47.60
1526;DHT22;756;49.982;8.240;2022-08-24T19:40:33;27.40;48.00
1526;DHT22;756;49.982;8.240;2022-08-24T19:43:01;27.40;48.10
1526;DHT22;756;49.982;8.240;2022-08-24T19:45:29;27.30;48.20
1526;DHT22;756;49.982;8.240;2022-08-24T19:48:14;27.20;48.20
1526;DHT22;756;49.982;8.240;2022-08-24T19:50:42;27.20;48.20
1526;DHT22;756;49.982;8.240;2022-08-24T19:53:09;27.10;48.30
1526;DHT22;756;49.982;8.240;2022-08-24T19:55:36;27.10;48.20
1526;DHT22;756;49.982;8.240;2022-08-24T19:58:15;27.00;48.30
1526;DHT22;756;49.982;8.240;2022-08-24T20:00:47;27.00;48.40
1526;DHT22;756;49.982;8.240;2022-08-24T20:03:17;27.00;48.30
1526;DHT22;756;49.982;8.240;2022-08-24T20:05:44;26.90;48.30
1526;DHT22;756;49.982;8.240;2022-08-24T20:08:11;26.90;48.20
1526;DHT22;756;49.982;8.240;2022-08-24T20:10:38;26.80;48.50
1526;DHT22;756;49.982;8.240;2022-08-24T20:13:06;26.70;48.80
1526;DHT22;756;49.982;8.240;2022-08-24T20:15:33;26.70;48.90
1526;DHT22;756;49.982;8.240;2022-08-24T20:18:00;26.60;48.90
1526;DHT22;756;49.982;8.240;2022-08-24T20:20:27;26.60;48.80
1526;DHT22;756;49.982;8.240;2022-08-24T20:22:56;26.60;48.80
1526;DHT22;756;49.982;8.240;2022-08-24T20:25:25;26.50;48.30
1526;DHT22;756;49.982;8.240;2022-08-24T20:27:52;26.40;48.00
1526;DHT22;756;49.982;8.240;2022-08-24T20:30:40;26.30;48.40
1526;DHT22;756;49.982;8.240;2022-08-24T20:33:15;26.20;48.70
1526;DHT22;756;49.982;8.240;2022-08-24T20:35:43;26.20;48.60
1526;DHT22;756;49.982;8.240;2022-08-24T20:38:15;26.10;48.80
1526;DHT22;756;49.982;8.240;2022-08-24T20:40:44;26.00;48.80
1526;DHT22;756;49.982;8.240;2022-08-24T20:43:11;26.00;48.70
1526;DHT22;756;49.982;8.240;2022-08-24T20:45:38;25.90;48.60
1526;DHT22;756;49.982;8.240;2022-08-24T20:48:07;25.80;48.90
1526;DHT22;756;49.982;8.240;2022-08-24T20:50:35;25.70;48.90
1526;DHT22;756;49.982;8.240;2022-08-24T20:53:02;25.70;48.90
1526;DHT22;756;49.982;8.240;2022-08-24T20:55:29;25.60;49.10
1526;DHT22;756;49.982;8.240;2022-08-24T20:57:57;25.60;49.50
1526;DHT22;756;49.982;8.240;2022-08-24T21:00:29;25.50;49.60
1526;DHT22;756;49.982;8.240;2022-08-24T21:02:56;25.40;49.60
1526;DHT22;756;49.982;8.240;2022-08-24T21:05:23;25.40;49.50